Canton, OH (44730)

5:42 AM EDT on August 20, 2014 (GMT -0400)
Village of East Canton | Change Station
CLOSE
Current Station
Personal Weather Station
Location: East Canton, OH
Elevation: 1155 ft
Nearby Weather Stations
Active Advisory: Areal Flood Advisory

Elev 1155 ft 40.79 °N, 81.29 °W | Updated 2 minutes ago

Heavy Thunderstorms and Rain
Heavy Thunderstorm Rain Mist
66.0 °F
Feels Like 66.0 °F
N
1.6
Wind Variable Wind from SSE
Gusts 3.8 mph

Today
High -- | Low -- °F
--% Chance of Precip.
Yesterday
High -- | Low -- °F
Precip. -- in
6:40 AM 8:15 PM
Waning Crescent, 23% visible
Pressure 29.84 in
Visibility 6.0 miles
Clouds Mostly Cloudy 4500 ft
Overcast 7000 ft
Dew Point 66 °F
Humidity 99%
Rainfall 1.00 in
Snow Depth Not available.
UV 0 out of 12
Pollen 8.80 out of 12
Air Quality Not available.
Flu Activity Not available.
METAR KCAK 200851Z 15011KT 6SM +TSRA BR BKN045CB OVC070 19/18 A2987 RMK AO2 TSB13 SLP103 OCNL LTGICCCCG N-SW TS N-SW MOV E P0005 60023 T01940178 50001

More Conditions Fewer Conditions

Pressure 29.84 in
Visibility 6.0 miles
Clouds Mostly Cloudy 4500 ft
Overcast 7000 ft
Dew Point 66 °F
Humidity 99%
Rainfall 1.00 in
Snow Depth Not available.
UV 0 out of 12
Pollen 8.80 out of 12
Air Quality Not available.
Flu Activity Not available.
METAR KCAK 200851Z 15011KT 6SM +TSRA BR BKN045CB OVC070 19/18 A2987 RMK AO2 TSB13 SLP103 OCNL LTGICCCCG N-SW TS N-SW MOV E P0005 60023 T01940178 50001

More Conditions Fewer Conditions

Nowcast | as of 4:04 am EDT on August 20, 2014

Scattered to numerous showers and thunderstorms will continue to move across Northern Ohio and northwest Pennsylvania through 6 am. All of these showers and thunderstorms will continue to move to the east at around 25 mph. The strongest thunderstorms will be capable of producing wind gusts to 30 mph...heavy rainfall and occasional lightning strikes. Rainfall amounts of an additional quarter to three quarters of an inch will be possible.

×

10-Day Weather Forecast

Almanac

Astronomy

Aug. 20, 2014 Rise Set
Actual Time 6:40 AM EDT 8:15 PM EDT
Civil Twilight 6:11 AM EDT 8:44 PM EDT
Nautical Twilight 5:36 AM EDT 9:19 PM EDT
Astronomical Twilight 4:58 AM EDT 9:56 PM EDT
Moon 2:18 AM EDT 5:00 PM EDT
Length of Visible Light 14h 33m
Length of Day
13h 35m
Tomorrow will be 2m 28s shorter.
Waning Crescent, 23% of the Moon is Illuminated
Today
Waning Crescent
Aug 25
New
Sep 2
First Quarter
Sep 8
Full
Sep 15
Last Quarter

Today's Extremes

State Highs State Lows

Community

WunderPhotos

Upload Photos

1,745,604 photos uploaded!

Nearby

Snow Depth

Station Depth Elevation
No new snow has been reported.

Earthquake Activity

City Distance Mag. Time & Date
No recent earthquake activity has been reported nearby.
Minimum magnitude displayed is 2.5.

Coastal Water Temperatures

Place Temperature
No Stations Reporting

Nearby Weather Stations